Nearby METAR Reports

 

CYKA - Kamloops Airport
Distance from station: SSW 65km
Updated: 2021-07-26 05:00
Smoke, Clear
Smoke, Clear
 Wind from W
Wind: W 9 km/h
Temperature: 15°C
Dew Point: 8°C
Humidity: 63%
Barometer: 1015.2 hPa
Summary: Smoke
Clouds: Clear
Visibility: 5 km
2021/07/26 12:00 CYKA 261200Z 28005KT 3SM FU SKC 15/08 A2998 RMK FU4 VIS W 2 SLP151 DENSITY ALT 1400FT
CWSL - Salmon Arm Autob
Distance from station: SE 90km
Updated: 2021-07-26 05:00

 Wind from S
Wind: S 4 km/h
Temperature: 15°C
Dew Point: 10°C
Humidity: 72%
2021/07/26 12:00 CWSL 261200Z AUTO 18002KT 15/10 RMK AO1 SLP143 T01470102 51010
 
CYIN - Bleibler Ranch
Distance from station: W 103km
Updated: 2021-07-26 05:22
Mist, Overcast
Mist, Overcast
 Wind from SSE
Wind: SSE 4 km/h
Temperature: 4°C
Dew Point: 3°C
Humidity: 93%
Barometer: 1017.3 hPa
Summary: Mist
Clouds: Overcast
Visibility: 10 km
Cloud details: Overcast 7315 m
2021/07/26 12:22 CYIN 261222Z AUTO 16002KT 6SM BR OVC240 04/03 A3004 RMK SLP196
CYCP - Blue River (man)
Distance from station: NNE 116km
Updated: 2021-07-25 18:00
NOT Current
Mostly cloudy
Mostly cloudy
 Wind from N
Wind: N 19 km/h, Gust: 37 km/h
Temperature: 22°C
Dew Point: 11°C
Humidity: 50%
Barometer: 1013.5 hPa
Clouds: Mostly cloudy
Visibility: 24 km
Cloud details: Partly cloudy 2743 m
Partly cloudy 3962 m
Mostly cloudy 9144 m
2021/07/26 01:00 CYCP 260100Z 01010G20KT 300V050 15SM SCT090CB SCT130 BKN300 22/11 A2993 RMK CB3AC1CI2 FU ALQDS LAST STFD OBS/NEXT 261300Z SLP138 DENSITY ALT 3600FT
 
CYLW - Kelowna Airport
Distance from station: SSE 157km
Updated: 2021-07-26 05:00
Clear
Clear
 Wind from calm
Wind: Calm
Temperature: 13°C
Dew Point: 8°C
Humidity: 72%
Barometer: 1014.6 hPa
Clouds: Clear
Visibility: 14 km
2021/07/26 12:00 CYLW 261200Z AUTO 00000KT 9SM CLR 13/08 A2996 RMK SLP138 DENSITY ALT 1500FT
CYWL - Williams Lake Airport
Distance from station: NW 164km
Updated: 2021-07-26 05:00
Mostly cloudy
Mostly cloudy
 Wind from ENE
Wind: ENE 9 km/h
Temperature: 10°C
Wind Chill: 9°C
Dew Point: 10°C
Humidity: 100%
Barometer: 1016.6 hPa
Clouds: Mostly cloudy
Visibility: 24 km
Cloud details: Partly cloudy 2256 m
Mostly cloudy 7010 m
2021/07/26 12:00 CYWL 261200Z 07005KT 15SM SCT074 BKN230 10/10 A3002 RMK AC3CI2 SLP173 DENSITY ALT 3200FT